sensor_id;sensor_type;location;lat;lon;timestamp;P1;durP1;ratioP1;P2;durP2;ratioP2
9900;SDS011;4989;48.772;9.154;2023-01-25T00:01:25;12.77;;;8.43;;
9900;SDS011;4989;48.772;9.154;2023-01-25T00:06:28;12.23;;;7.90;;
9900;SDS011;4989;48.772;9.154;2023-01-25T00:11:30;11.43;;;7.63;;
9900;SDS011;4989;48.772;9.154;2023-01-25T00:16:33;10.27;;;7.13;;
9900;SDS011;4989;48.772;9.154;2023-01-25T00:21:39;13.40;;;7.90;;
9900;SDS011;4989;48.772;9.154;2023-01-25T00:26:41;12.00;;;7.63;;
9900;SDS011;4989;48.772;9.154;2023-01-25T00:37:09;13.20;;;7.80;;
9900;SDS011;4989;48.772;9.154;2023-01-25T00:42:22;10.47;;;6.60;;
9900;SDS011;4989;48.772;9.154;2023-01-25T00:47:24;10.90;;;6.00;;
9900;SDS011;4989;48.772;9.154;2023-01-25T00:52:27;10.90;;;7.40;;
9900;SDS011;4989;48.772;9.154;2023-01-25T00:57:29;14.17;;;8.20;;
9900;SDS011;4989;48.772;9.154;2023-01-25T01:02:32;10.57;;;7.80;;
9900;SDS011;4989;48.772;9.154;2023-01-25T01:07:34;10.03;;;6.53;;
9900;SDS011;4989;48.772;9.154;2023-01-25T01:12:37;13.30;;;7.83;;
9900;SDS011;4989;48.772;9.154;2023-01-25T01:17:40;12.10;;;7.53;;
9900;SDS011;4989;48.772;9.154;2023-01-25T01:22:45;11.03;;;8.07;;
9900;SDS011;4989;48.772;9.154;2023-01-25T01:27:48;13.67;;;8.73;;
9900;SDS011;4989;48.772;9.154;2023-01-25T01:32:50;13.20;;;7.47;;
9900;SDS011;4989;48.772;9.154;2023-01-25T01:37:53;9.80;;;6.87;;
9900;SDS011;4989;48.772;9.154;2023-01-25T01:54:04;11.33;;;6.70;;
9900;SDS011;4989;48.772;9.154;2023-01-25T01:59:12;10.87;;;7.30;;
9900;SDS011;4989;48.772;9.154;2023-01-25T02:04:17;11.57;;;7.33;;
9900;SDS011;4989;48.772;9.154;2023-01-25T02:09:21;10.73;;;7.30;;
9900;SDS011;4989;48.772;9.154;2023-01-25T02:14:27;9.00;;;6.07;;
9900;SDS011;4989;48.772;9.154;2023-01-25T02:25:14;9.40;;;6.10;;
9900;SDS011;4989;48.772;9.154;2023-01-25T02:30:17;13.27;;;7.50;;
9900;SDS011;4989;48.772;9.154;2023-01-25T02:35:21;11.63;;;7.37;;
9900;SDS011;4989;48.772;9.154;2023-01-25T02:40:26;11.57;;;7.57;;
9900;SDS011;4989;48.772;9.154;2023-01-25T02:45:31;11.43;;;6.90;;
9900;SDS011;4989;48.772;9.154;2023-01-25T02:50:34;9.57;;;6.77;;
9900;SDS011;4989;48.772;9.154;2023-01-25T02:55:36;11.10;;;7.13;;
9900;SDS011;4989;48.772;9.154;2023-01-25T03:00:41;10.10;;;6.33;;
9900;SDS011;4989;48.772;9.154;2023-01-25T03:05:44;10.90;;;6.97;;
9900;SDS011;4989;48.772;9.154;2023-01-25T03:10:47;10.77;;;7.87;;
9900;SDS011;4989;48.772;9.154;2023-01-25T03:15:50;10.80;;;6.83;;
9900;SDS011;4989;48.772;9.154;2023-01-25T03:20:53;10.83;;;7.07;;
9900;SDS011;4989;48.772;9.154;2023-01-25T03:26:03;10.90;;;7.10;;
9900;SDS011;4989;48.772;9.154;2023-01-25T03:31:32;11.00;;;6.77;;
9900;SDS011;4989;48.772;9.154;2023-01-25T03:36:35;9.93;;;5.67;;
9900;SDS011;4989;48.772;9.154;2023-01-25T03:41:38;10.00;;;6.33;;
9900;SDS011;4989;48.772;9.154;2023-01-25T03:46:44;9.57;;;5.93;;
9900;SDS011;4989;48.772;9.154;2023-01-25T03:51:47;8.10;;;5.83;;
9900;SDS011;4989;48.772;9.154;2023-01-25T03:56:51;8.57;;;6.33;;
9900;SDS011;4989;48.772;9.154;2023-01-25T04:01:58;10.87;;;6.63;;
9900;SDS011;4989;48.772;9.154;2023-01-25T04:07:01;9.47;;;5.73;;
9900;SDS011;4989;48.772;9.154;2023-01-25T04:12:05;9.67;;;6.43;;
9900;SDS011;4989;48.772;9.154;2023-01-25T04:17:08;9.27;;;6.17;;
9900;SDS011;4989;48.772;9.154;2023-01-25T04:22:21;9.20;;;5.97;;
9900;SDS011;4989;48.772;9.154;2023-01-25T04:27:27;8.07;;;5.90;;
9900;SDS011;4989;48.772;9.154;2023-01-25T04:32:38;9.73;;;6.13;;
9900;SDS011;4989;48.772;9.154;2023-01-25T04:37:56;9.33;;;5.73;;
9900;SDS011;4989;48.772;9.154;2023-01-25T04:43:07;8.43;;;5.97;;
9900;SDS011;4989;48.772;9.154;2023-01-25T04:48:13;9.63;;;5.43;;
9900;SDS011;4989;48.772;9.154;2023-01-25T04:53:23;10.20;;;6.00;;
9900;SDS011;4989;48.772;9.154;2023-01-25T04:58:27;8.07;;;5.33;;
9900;SDS011;4989;48.772;9.154;2023-01-25T05:03:30;8.27;;;6.03;;
9900;SDS011;4989;48.772;9.154;2023-01-25T05:08:32;7.63;;;5.23;;
9900;SDS011;4989;48.772;9.154;2023-01-25T05:13:36;7.83;;;5.37;;
9900;SDS011;4989;48.772;9.154;2023-01-25T05:18:49;8.40;;;5.80;;
9900;SDS011;4989;48.772;9.154;2023-01-25T05:23:55;7.00;;;4.57;;
9900;SDS011;4989;48.772;9.154;2023-01-25T05:28:58;5.57;;;4.20;;
9900;SDS011;4989;48.772;9.154;2023-01-25T05:34:17;7.30;;;5.10;;
9900;SDS011;4989;48.772;9.154;2023-01-25T05:39:20;7.03;;;4.93;;
9900;SDS011;4989;48.772;9.154;2023-01-25T05:44:24;7.47;;;5.13;;
9900;SDS011;4989;48.772;9.154;2023-01-25T05:49:28;6.30;;;4.70;;
9900;SDS011;4989;48.772;9.154;2023-01-25T05:54:31;6.73;;;4.93;;
9900;SDS011;4989;48.772;9.154;2023-01-25T05:59:38;6.30;;;4.60;;
9900;SDS011;4989;48.772;9.154;2023-01-25T06:04:42;6.83;;;5.07;;
9900;SDS011;4989;48.772;9.154;2023-01-25T06:09:47;8.33;;;5.10;;
9900;SDS011;4989;48.772;9.154;2023-01-25T06:14:51;7.77;;;5.27;;
9900;SDS011;4989;48.772;9.154;2023-01-25T06:19:54;7.83;;;5.20;;
9900;SDS011;4989;48.772;9.154;2023-01-25T06:25:17;6.37;;;4.70;;
9900;SDS011;4989;48.772;9.154;2023-01-25T06:30:19;6.60;;;4.83;;
9900;SDS011;4989;48.772;9.154;2023-01-25T06:35:22;7.00;;;5.10;;
9900;SDS011;4989;48.772;9.154;2023-01-25T06:40:25;7.67;;;5.60;;
9900;SDS011;4989;48.772;9.154;2023-01-25T06:45:28;7.87;;;5.20;;
9900;SDS011;4989;48.772;9.154;2023-01-25T06:50:31;8.37;;;5.10;;
9900;SDS011;4989;48.772;9.154;2023-01-25T06:55:34;5.57;;;4.23;;
9900;SDS011;4989;48.772;9.154;2023-01-25T07:00:36;6.90;;;4.87;;
9900;SDS011;4989;48.772;9.154;2023-01-25T07:05:38;9.30;;;5.80;;
9900;SDS011;4989;48.772;9.154;2023-01-25T07:10:41;7.60;;;5.10;;
9900;SDS011;4989;48.772;9.154;2023-01-25T07:15:43;9.50;;;5.63;;
9900;SDS011;4989;48.772;9.154;2023-01-25T07:20:52;8.53;;;5.60;;
9900;SDS011;4989;48.772;9.154;2023-01-25T07:25:54;6.90;;;5.17;;
9900;SDS011;4989;48.772;9.154;2023-01-25T07:31:05;8.07;;;5.37;;
9900;SDS011;4989;48.772;9.154;2023-01-25T07:36:09;7.67;;;5.30;;
9900;SDS011;4989;48.772;9.154;2023-01-25T07:41:12;7.00;;;5.47;;
9900;SDS011;4989;48.772;9.154;2023-01-25T07:46:16;7.87;;;5.77;;
9900;SDS011;4989;48.772;9.154;2023-01-25T07:51:20;7.33;;;5.10;;
9900;SDS011;4989;48.772;9.154;2023-01-25T07:56:24;8.80;;;5.30;;
9900;SDS011;4989;48.772;9.154;2023-01-25T08:01:29;9.33;;;5.77;;
9900;SDS011;4989;48.772;9.154;2023-01-25T08:06:35;8.70;;;5.47;;
9900;SDS011;4989;48.772;9.154;2023-01-25T08:11:40;7.90;;;4.97;;
9900;SDS011;4989;48.772;9.154;2023-01-25T08:16:43;9.07;;;6.00;;
9900;SDS011;4989;48.772;9.154;2023-01-25T08:21:46;10.13;;;5.70;;
9900;SDS011;4989;48.772;9.154;2023-01-25T08:26:49;7.43;;;5.70;;
9900;SDS011;4989;48.772;9.154;2023-01-25T08:31:51;9.60;;;6.13;;
9900;SDS011;4989;48.772;9.154;2023-01-25T08:36:54;6.00;;;4.33;;
9900;SDS011;4989;48.772;9.154;2023-01-25T08:41:56;6.13;;;4.70;;
9900;SDS011;4989;48.772;9.154;2023-01-25T08:46:59;9.80;;;6.30;;
9900;SDS011;4989;48.772;9.154;2023-01-25T08:52:01;7.10;;;5.33;;
9900;SDS011;4989;48.772;9.154;2023-01-25T08:57:04;10.07;;;4.93;;
9900;SDS011;4989;48.772;9.154;2023-01-25T09:02:08;6.30;;;5.20;;
9900;SDS011;4989;48.772;9.154;2023-01-25T09:07:12;7.27;;;4.93;;
9900;SDS011;4989;48.772;9.154;2023-01-25T09:12:15;6.93;;;5.33;;
9900;SDS011;4989;48.772;9.154;2023-01-25T09:17:17;8.33;;;5.63;;
9900;SDS011;4989;48.772;9.154;2023-01-25T09:22:20;5.90;;;4.50;;
9900;SDS011;4989;48.772;9.154;2023-01-25T09:27:22;8.20;;;5.27;;
9900;SDS011;4989;48.772;9.154;2023-01-25T09:32:25;8.13;;;5.60;;
9900;SDS011;4989;48.772;9.154;2023-01-25T09:37:28;7.13;;;5.17;;
9900;SDS011;4989;48.772;9.154;2023-01-25T09:47:44;7.10;;;5.10;;
9900;SDS011;4989;48.772;9.154;2023-01-25T09:53:26;9.37;;;5.33;;
9900;SDS011;4989;48.772;9.154;2023-01-25T09:58:41;6.57;;;4.70;;
9900;SDS011;4989;48.772;9.154;2023-01-25T10:04:03;7.27;;;5.50;;
9900;SDS011;4989;48.772;9.154;2023-01-25T10:14:20;8.57;;;5.85;;
9900;SDS011;4989;48.772;9.154;2023-01-25T10:30:19;8.50;;;5.23;;
9900;SDS011;4989;48.772;9.154;2023-01-25T10:35:30;6.70;;;4.83;;
9900;SDS011;4989;48.772;9.154;2023-01-25T10:40:45;8.13;;;5.60;;
9900;SDS011;4989;48.772;9.154;2023-01-25T10:46:19;8.27;;;5.60;;
9900;SDS011;4989;48.772;9.154;2023-01-25T10:51:32;7.83;;;5.60;;
9900;SDS011;4989;48.772;9.154;2023-01-25T10:56:38;8.17;;;5.20;;
9900;SDS011;4989;48.772;9.154;2023-01-25T11:01:41;7.60;;;5.30;;
9900;SDS011;4989;48.772;9.154;2023-01-25T11:06:47;7.93;;;5.17;;
9900;SDS011;4989;48.772;9.154;2023-01-25T11:11:55;7.60;;;5.83;;
9900;SDS011;4989;48.772;9.154;2023-01-25T11:17:16;9.60;;;5.93;;
9900;SDS011;4989;48.772;9.154;2023-01-25T11:22:24;6.83;;;5.40;;
9900;SDS011;4989;48.772;9.154;2023-01-25T11:27:26;9.50;;;6.10;;
9900;SDS011;4989;48.772;9.154;2023-01-25T11:32:29;8.53;;;6.17;;
9900;SDS011;4989;48.772;9.154;2023-01-25T11:43:04;9.17;;;6.03;;
9900;SDS011;4989;48.772;9.154;2023-01-25T11:53:59;10.50;;;6.60;;
9900;SDS011;4989;48.772;9.154;2023-01-25T11:59:22;8.67;;;6.23;;
9900;SDS011;4989;48.772;9.154;2023-01-25T12:32:04;8.63;;;6.43;;
9900;SDS011;4989;48.772;9.154;2023-01-25T12:37:19;13.20;;;7.00;;
9900;SDS011;4989;48.772;9.154;2023-01-25T12:47:45;10.07;;;6.83;;
9900;SDS011;4989;48.772;9.154;2023-01-25T12:52:57;11.53;;;7.23;;
9900;SDS011;4989;48.772;9.154;2023-01-25T12:58:25;10.87;;;6.90;;
9900;SDS011;4989;48.772;9.154;2023-01-25T13:09:12;10.00;;;7.03;;
9900;SDS011;4989;48.772;9.154;2023-01-25T13:14:27;11.23;;;7.17;;
9900;SDS011;4989;48.772;9.154;2023-01-25T13:19:39;13.47;;;7.77;;
9900;SDS011;4989;48.772;9.154;2023-01-25T13:45:37;10.73;;;7.27;;
9900;SDS011;4989;48.772;9.154;2023-01-25T13:50:43;12.77;;;8.20;;
9900;SDS011;4989;48.772;9.154;2023-01-25T13:55:52;10.17;;;7.43;;
9900;SDS011;4989;48.772;9.154;2023-01-25T14:00:58;12.27;;;7.93;;
9900;SDS011;4989;48.772;9.154;2023-01-25T14:06:23;12.90;;;8.47;;
9900;SDS011;4989;48.772;9.154;2023-01-25T14:11:28;9.93;;;6.00;;
9900;SDS011;4989;48.772;9.154;2023-01-25T14:16:34;13.13;;;8.30;;
9900;SDS011;4989;48.772;9.154;2023-01-25T14:21:37;14.33;;;8.60;;
9900;SDS011;4989;48.772;9.154;2023-01-25T14:26:40;13.43;;;8.47;;
9900;SDS011;4989;48.772;9.154;2023-01-25T14:31:46;10.93;;;7.00;;
9900;SDS011;4989;48.772;9.154;2023-01-25T14:37:05;12.03;;;7.73;;
9900;SDS011;4989;48.772;9.154;2023-01-25T14:42:17;11.70;;;7.33;;
9900;SDS011;4989;48.772;9.154;2023-01-25T14:47:21;13.77;;;8.93;;
9900;SDS011;4989;48.772;9.154;2023-01-25T14:52:33;12.17;;;8.13;;
9900;SDS011;4989;48.772;9.154;2023-01-25T14:57:39;9.97;;;6.93;;
9900;SDS011;4989;48.772;9.154;2023-01-25T15:02:46;11.07;;;7.30;;
9900;SDS011;4989;48.772;9.154;2023-01-25T15:23:46;14.23;;;8.67;;
9900;SDS011;4989;48.772;9.154;2023-01-25T15:28:51;17.90;;;9.07;;
9900;SDS011;4989;48.772;9.154;2023-01-25T15:33:55;15.10;;;9.03;;
9900;SDS011;4989;48.772;9.154;2023-01-25T15:38:59;14.60;;;8.13;;
9900;SDS011;4989;48.772;9.154;2023-01-25T15:44:01;16.87;;;8.20;;
9900;SDS011;4989;48.772;9.154;2023-01-25T15:49:04;12.80;;;7.90;;
9900;SDS011;4989;48.772;9.154;2023-01-25T15:54:08;11.50;;;8.03;;
9900;SDS011;4989;48.772;9.154;2023-01-25T15:59:14;10.63;;;7.20;;
9900;SDS011;4989;48.772;9.154;2023-01-25T16:04:18;14.20;;;8.83;;
9900;SDS011;4989;48.772;9.154;2023-01-25T16:09:25;12.57;;;8.17;;
9900;SDS011;4989;48.772;9.154;2023-01-25T16:14:30;13.73;;;8.67;;
9900;SDS011;4989;48.772;9.154;2023-01-25T16:19:32;13.33;;;8.57;;
9900;SDS011;4989;48.772;9.154;2023-01-25T16:24:38;13.63;;;8.43;;
9900;SDS011;4989;48.772;9.154;2023-01-25T16:29:41;16.17;;;9.00;;
9900;SDS011;4989;48.772;9.154;2023-01-25T16:34:44;15.53;;;8.77;;
9900;SDS011;4989;48.772;9.154;2023-01-25T16:39:46;14.77;;;8.83;;
9900;SDS011;4989;48.772;9.154;2023-01-25T16:44:50;16.80;;;8.77;;
9900;SDS011;4989;48.772;9.154;2023-01-25T16:49:52;14.93;;;8.00;;
9900;SDS011;4989;48.772;9.154;2023-01-25T16:54:55;13.77;;;8.37;;
9900;SDS011;4989;48.772;9.154;2023-01-25T16:59:57;11.40;;;7.27;;
9900;SDS011;4989;48.772;9.154;2023-01-25T17:05:04;15.43;;;8.30;;
9900;SDS011;4989;48.772;9.154;2023-01-25T17:10:07;14.73;;;8.40;;
9900;SDS011;4989;48.772;9.154;2023-01-25T17:15:11;14.43;;;8.33;;
9900;SDS011;4989;48.772;9.154;2023-01-25T17:20:14;13.30;;;7.80;;
9900;SDS011;4989;48.772;9.154;2023-01-25T17:25:17;14.17;;;8.33;;
9900;SDS011;4989;48.772;9.154;2023-01-25T17:30:19;14.60;;;8.17;;
9900;SDS011;4989;48.772;9.154;2023-01-25T17:35:22;14.83;;;8.43;;
9900;SDS011;4989;48.772;9.154;2023-01-25T17:40:24;15.10;;;7.53;;
9900;SDS011;4989;48.772;9.154;2023-01-25T17:45:27;13.90;;;7.70;;
9900;SDS011;4989;48.772;9.154;2023-01-25T17:50:30;13.27;;;8.50;;
9900;SDS011;4989;48.772;9.154;2023-01-25T17:55:35;14.33;;;8.40;;
9900;SDS011;4989;48.772;9.154;2023-01-25T18:00:39;14.83;;;8.10;;
9900;SDS011;4989;48.772;9.154;2023-01-25T18:05:41;13.03;;;7.63;;
9900;SDS011;4989;48.772;9.154;2023-01-25T18:10:45;13.23;;;7.30;;
9900;SDS011;4989;48.772;9.154;2023-01-25T18:15:52;14.80;;;7.80;;
9900;SDS011;4989;48.772;9.154;2023-01-25T18:21:05;12.33;;;7.27;;
9900;SDS011;4989;48.772;9.154;2023-01-25T18:26:15;19.43;;;11.90;;
9900;SDS011;4989;48.772;9.154;2023-01-25T18:31:20;14.07;;;7.53;;
9900;SDS011;4989;48.772;9.154;2023-01-25T18:36:22;12.67;;;7.37;;
9900;SDS011;4989;48.772;9.154;2023-01-25T18:41:28;12.50;;;6.90;;
9900;SDS011;4989;48.772;9.154;2023-01-25T18:46:30;11.87;;;6.60;;
9900;SDS011;4989;48.772;9.154;2023-01-25T18:51:33;10.20;;;6.50;;
9900;SDS011;4989;48.772;9.154;2023-01-25T18:56:56;10.90;;;5.90;;
9900;SDS011;4989;48.772;9.154;2023-01-25T19:01:58;9.67;;;6.30;;
9900;SDS011;4989;48.772;9.154;2023-01-25T19:07:01;9.13;;;6.40;;
9900;SDS011;4989;48.772;9.154;2023-01-25T19:12:04;10.37;;;6.40;;
9900;SDS011;4989;48.772;9.154;2023-01-25T19:17:06;11.63;;;7.33;;
9900;SDS011;4989;48.772;9.154;2023-01-25T19:22:09;12.33;;;7.70;;
9900;SDS011;4989;48.772;9.154;2023-01-25T19:27:11;13.00;;;6.53;;
9900;SDS011;4989;48.772;9.154;2023-01-25T19:32:14;12.07;;;7.10;;
9900;SDS011;4989;48.772;9.154;2023-01-25T19:37:17;9.17;;;6.63;;
9900;SDS011;4989;48.772;9.154;2023-01-25T19:42:19;12.17;;;7.17;;
9900;SDS011;4989;48.772;9.154;2023-01-25T19:47:22;13.70;;;7.67;;
9900;SDS011;4989;48.772;9.154;2023-01-25T19:52:24;11.37;;;6.63;;
9900;SDS011;4989;48.772;9.154;2023-01-25T19:57:27;12.23;;;6.70;;
9900;SDS011;4989;48.772;9.154;2023-01-25T20:02:29;12.07;;;7.23;;
9900;SDS011;4989;48.772;9.154;2023-01-25T20:07:32;11.80;;;6.73;;
9900;SDS011;4989;48.772;9.154;2023-01-25T20:12:35;14.13;;;7.70;;
9900;SDS011;4989;48.772;9.154;2023-01-25T20:17:37;13.77;;;7.53;;
9900;SDS011;4989;48.772;9.154;2023-01-25T20:22:40;14.17;;;8.07;;
9900;SDS011;4989;48.772;9.154;2023-01-25T20:27:42;14.57;;;9.00;;
9900;SDS011;4989;48.772;9.154;2023-01-25T20:32:45;15.97;;;8.90;;
9900;SDS011;4989;48.772;9.154;2023-01-25T20:37:49;16.03;;;9.53;;
9900;SDS011;4989;48.772;9.154;2023-01-25T20:42:51;14.47;;;8.37;;
9900;SDS011;4989;48.772;9.154;2023-01-25T20:47:54;14.27;;;8.17;;
9900;SDS011;4989;48.772;9.154;2023-01-25T20:52:56;11.40;;;6.70;;
9900;SDS011;4989;48.772;9.154;2023-01-25T20:57:59;15.13;;;9.13;;
9900;SDS011;4989;48.772;9.154;2023-01-25T21:03:01;14.80;;;8.37;;
9900;SDS011;4989;48.772;9.154;2023-01-25T21:08:04;18.33;;;9.57;;
9900;SDS011;4989;48.772;9.154;2023-01-25T21:13:07;14.07;;;8.80;;
9900;SDS011;4989;48.772;9.154;2023-01-25T21:18:09;14.20;;;8.90;;
9900;SDS011;4989;48.772;9.154;2023-01-25T21:23:11;12.43;;;7.53;;
9900;SDS011;4989;48.772;9.154;2023-01-25T21:28:14;15.27;;;9.03;;
9900;SDS011;4989;48.772;9.154;2023-01-25T21:33:16;15.00;;;9.27;;
9900;SDS011;4989;48.772;9.154;2023-01-25T21:38:19;13.10;;;8.57;;
9900;SDS011;4989;48.772;9.154;2023-01-25T21:43:22;15.40;;;9.43;;
9900;SDS011;4989;48.772;9.154;2023-01-25T21:48:24;17.07;;;9.20;;
9900;SDS011;4989;48.772;9.154;2023-01-25T21:54:05;14.73;;;9.00;;
9900;SDS011;4989;48.772;9.154;2023-01-25T21:59:08;15.27;;;9.40;;
9900;SDS011;4989;48.772;9.154;2023-01-25T22:04:11;16.33;;;10.30;;
9900;SDS011;4989;48.772;9.154;2023-01-25T22:09:15;20.43;;;10.73;;
9900;SDS011;4989;48.772;9.154;2023-01-25T22:14:18;14.80;;;9.37;;
9900;SDS011;4989;48.772;9.154;2023-01-25T22:19:23;19.67;;;11.00;;
9900;SDS011;4989;48.772;9.154;2023-01-25T22:24:26;20.53;;;10.90;;
9900;SDS011;4989;48.772;9.154;2023-01-25T22:29:28;17.33;;;10.17;;
9900;SDS011;4989;48.772;9.154;2023-01-25T22:34:32;16.93;;;10.50;;
9900;SDS011;4989;48.772;9.154;2023-01-25T22:39:35;16.97;;;11.07;;
9900;SDS011;4989;48.772;9.154;2023-01-25T22:44:37;19.13;;;10.93;;
9900;SDS011;4989;48.772;9.154;2023-01-25T22:49:40;14.73;;;8.23;;
9900;SDS011;4989;48.772;9.154;2023-01-25T22:54:42;15.40;;;8.90;;
9900;SDS011;4989;48.772;9.154;2023-01-25T22:59:45;16.93;;;10.10;;
9900;SDS011;4989;48.772;9.154;2023-01-25T23:04:47;18.33;;;10.37;;
9900;SDS011;4989;48.772;9.154;2023-01-25T23:09:50;13.03;;;8.40;;
9900;SDS011;4989;48.772;9.154;2023-01-25T23:14:53;17.60;;;10.03;;
9900;SDS011;4989;48.772;9.154;2023-01-25T23:19:59;17.13;;;9.10;;
9900;SDS011;4989;48.772;9.154;2023-01-25T23:25:02;17.97;;;10.53;;
9900;SDS011;4989;48.772;9.154;2023-01-25T23:30:05;21.07;;;10.93;;
9900;SDS011;4989;48.772;9.154;2023-01-25T23:35:09;15.73;;;9.33;;
9900;SDS011;4989;48.772;9.154;2023-01-25T23:40:12;21.60;;;13.93;;
9900;SDS011;4989;48.772;9.154;2023-01-25T23:45:15;18.63;;;10.37;;
9900;SDS011;4989;48.772;9.154;2023-01-25T23:50:18;19.43;;;11.53;;
9900;SDS011;4989;48.772;9.154;2023-01-25T23:55:20;17.10;;;9.50;;
